createdAt,value
2023-11-29T00:01:07.581Z,18.67
2023-11-29T00:03:34.038Z,19.83
2023-11-29T00:06:00.620Z,19.13
2023-11-29T00:08:27.301Z,20.35
2023-11-29T00:10:53.947Z,18.50
2023-11-29T00:13:21.289Z,18.98
2023-11-29T00:15:48.575Z,17.27
2023-11-29T00:18:15.863Z,18.88
2023-11-29T00:20:42.638Z,21.70
2023-11-29T00:23:09.468Z,22.02
2023-11-29T00:25:35.933Z,20.92
2023-11-29T00:28:02.856Z,16.88
2023-11-29T00:30:30.432Z,18.73
2023-11-29T00:32:57.903Z,19.42
2023-11-29T00:35:25.483Z,19.40
2023-11-29T00:37:52.113Z,19.20
2023-11-29T00:40:19.105Z,17.45
2023-11-29T00:42:45.890Z,20.15
2023-11-29T00:45:12.662Z,20.38
2023-11-29T00:47:39.574Z,18.38
2023-11-29T00:50:07.215Z,20.52
2023-11-29T00:52:33.757Z,17.33
2023-11-29T00:55:00.267Z,19.02
2023-11-29T00:57:26.849Z,18.63
2023-11-29T00:59:53.427Z,18.85
2023-11-29T01:02:20.081Z,21.17
2023-11-29T01:04:46.702Z,19.77
2023-11-29T01:07:13.380Z,21.50
2023-11-29T01:09:39.835Z,20.13
2023-11-29T01:12:06.531Z,19.88
2023-11-29T01:14:33.076Z,16.52
2023-11-29T01:16:59.652Z,17.10
2023-11-29T01:19:26.191Z,19.30
2023-11-29T01:21:52.692Z,17.48
2023-11-29T01:24:19.458Z,18.55
2023-11-29T01:26:46.062Z,18.15
2023-11-29T01:29:12.821Z,17.48
2023-11-29T01:31:39.404Z,19.73
2023-11-29T01:34:05.977Z,18.35
2023-11-29T01:36:33.673Z,19.30
2023-11-29T01:39:00.241Z,19.63
2023-11-29T01:41:27.508Z,21.10
2023-11-29T01:43:55.941Z,21.65
2023-11-29T01:46:22.540Z,20.60
2023-11-29T01:48:49.098Z,17.88
2023-11-29T01:51:15.778Z,18.55
2023-11-29T01:53:43.915Z,18.73
2023-11-29T01:56:10.886Z,21.02
2023-11-29T01:58:37.827Z,19.00
2023-11-29T02:01:04.373Z,18.70
2023-11-29T02:03:31.371Z,21.52
2023-11-29T02:05:58.456Z,21.33
2023-11-29T02:08:25.581Z,21.55
2023-11-29T02:10:52.213Z,20.95
2023-11-29T02:13:19.081Z,19.75
2023-11-29T02:15:46.202Z,20.35
2023-11-29T02:18:14.641Z,20.98
2023-11-29T02:20:41.432Z,20.60
2023-11-29T02:23:25.959Z,19.35
2023-11-29T02:25:52.487Z,21.40
2023-11-29T02:28:19.065Z,21.55
2023-11-29T02:30:45.804Z,18.23
2023-11-29T02:33:12.437Z,22.08
2023-11-29T02:35:39.107Z,24.52
2023-11-29T02:38:05.541Z,21.33
2023-11-29T02:40:32.933Z,18.88
2023-11-29T02:43:01.338Z,21.20
2023-11-29T02:45:28.387Z,17.60
2023-11-29T02:47:55.894Z,20.30
2023-11-29T02:50:22.515Z,18.98
2023-11-29T02:52:49.488Z,19.17
2023-11-29T02:55:16.034Z,21.05
2023-11-29T02:57:42.598Z,20.33
2023-11-29T03:00:10.447Z,19.02
2023-11-29T03:02:37.122Z,20.85
2023-11-29T03:05:03.923Z,18.75
2023-11-29T03:07:31.411Z,21.27
2023-11-29T03:09:57.881Z,20.00
2023-11-29T03:12:24.366Z,20.98
2023-11-29T03:14:51.002Z,22.98
2023-11-29T03:17:17.647Z,19.08
2023-11-29T03:19:44.146Z,18.75
2023-11-29T03:22:10.574Z,17.67
2023-11-29T03:24:37.073Z,21.27
2023-11-29T03:27:03.626Z,20.17
2023-11-29T03:29:30.147Z,18.40
2023-11-29T03:31:57.215Z,19.67
2023-11-29T03:34:24.643Z,20.33
2023-11-29T03:36:51.227Z,17.52
2023-11-29T03:39:17.700Z,18.80
2023-11-29T03:41:44.269Z,17.67
2023-11-29T03:44:10.882Z,16.23
2023-11-29T03:46:37.404Z,18.98
2023-11-29T03:49:04.649Z,19.42
2023-11-29T03:51:38.055Z,19.33
2023-11-29T03:54:08.527Z,18.77
2023-11-29T03:56:35.096Z,18.70
2023-11-29T03:59:01.608Z,18.05
2023-11-29T04:01:33.260Z,18.52
2023-11-29T04:03:59.940Z,16.83
2023-11-29T04:06:27.783Z,18.25
2023-11-29T04:08:55.556Z,20.17
2023-11-29T04:11:24.237Z,16.60
2023-11-29T04:13:51.029Z,19.55
2023-11-29T04:16:21.631Z,19.63
2023-11-29T04:18:49.364Z,19.35
2023-11-29T04:21:28.418Z,19.30
2023-11-29T04:23:56.459Z,21.75
2023-11-29T04:26:27.944Z,18.42
2023-11-29T04:28:56.801Z,18.43
2023-11-29T04:31:24.926Z,19.58
2023-11-29T04:33:51.585Z,19.65
2023-11-29T04:36:18.347Z,17.70
2023-11-29T04:38:45.959Z,19.27
2023-11-29T04:41:12.609Z,18.00
2023-11-29T04:43:39.147Z,18.17
2023-11-29T04:46:05.693Z,19.67
2023-11-29T04:48:32.257Z,17.77
2023-11-29T04:50:58.751Z,18.73
2023-11-29T04:53:25.386Z,19.23
2023-11-29T04:55:53.807Z,18.92
2023-11-29T04:58:23.092Z,18.48
2023-11-29T05:00:49.902Z,18.33
2023-11-29T05:03:16.868Z,16.40
2023-11-29T05:05:43.867Z,20.83
2023-11-29T05:08:10.650Z,16.67
2023-11-29T05:10:38.223Z,16.75
2023-11-29T05:13:05.289Z,17.35
2023-11-29T05:15:34.289Z,18.40
2023-11-29T05:18:05.406Z,15.52
2023-11-29T05:20:32.295Z,16.98
2023-11-29T05:22:58.965Z,17.55
2023-11-29T05:25:26.128Z,13.55
2023-11-29T05:27:52.640Z,17.35
2023-11-29T05:30:19.539Z,16.25
2023-11-29T05:32:47.224Z,16.50
2023-11-29T05:35:14.683Z,15.65
2023-11-29T05:37:42.238Z,17.30
2023-11-29T05:40:09.664Z,17.08
2023-11-29T05:42:36.899Z,15.85
2023-11-29T05:45:04.950Z,17.45
2023-11-29T05:47:31.895Z,18.40
2023-11-29T05:50:00.991Z,16.73
2023-11-29T05:52:27.910Z,15.48
2023-11-29T05:54:54.504Z,17.25
2023-11-29T05:57:21.013Z,15.00
2023-11-29T05:59:48.026Z,15.27
2023-11-29T06:02:15.580Z,15.85
2023-11-29T06:04:42.194Z,15.10
2023-11-29T06:07:08.711Z,17.77
2023-11-29T06:09:37.814Z,15.85
2023-11-29T06:12:04.858Z,15.48
2023-11-29T06:14:31.420Z,16.13
2023-11-29T06:16:57.947Z,16.00
2023-11-29T06:19:24.444Z,13.98
2023-11-29T06:21:50.960Z,18.00
2023-11-29T06:24:18.628Z,19.15
2023-11-29T06:26:46.404Z,15.15
2023-11-29T06:29:13.147Z,16.33
2023-11-29T06:31:39.675Z,16.63
2023-11-29T06:34:08.827Z,16.98
2023-11-29T06:36:38.313Z,14.55
2023-11-29T06:39:05.243Z,16.35
2023-11-29T06:41:31.933Z,14.57
2023-11-29T06:43:58.807Z,15.45
2023-11-29T06:46:25.355Z,15.23
2023-11-29T06:48:51.888Z,17.08
2023-11-29T06:51:18.357Z,16.67
2023-11-29T06:53:44.923Z,13.93
2023-11-29T06:56:11.775Z,16.13
2023-11-29T06:58:39.236Z,16.10
2023-11-29T07:01:08.510Z,15.65
2023-11-29T07:03:35.145Z,16.05
2023-11-29T07:06:02.150Z,15.45
2023-11-29T07:08:29.141Z,14.48
2023-11-29T07:10:55.731Z,15.00
2023-11-29T07:13:22.220Z,19.58
2023-11-29T07:15:48.817Z,16.85
2023-11-29T07:18:15.454Z,17.02
2023-11-29T07:20:46.171Z,15.63
2023-11-29T07:23:13.796Z,16.55
2023-11-29T07:25:40.466Z,15.70
2023-11-29T07:28:06.945Z,15.93
2023-11-29T07:30:33.521Z,15.73
2023-11-29T07:33:00.146Z,16.55
2023-11-29T07:35:27.203Z,16.50
2023-11-29T07:37:53.740Z,16.52
2023-11-29T07:40:22.287Z,16.33
2023-11-29T07:42:50.214Z,15.30
2023-11-29T07:45:16.917Z,15.45
2023-11-29T07:47:44.741Z,16.67
2023-11-29T07:50:15.652Z,16.33
2023-11-29T07:52:42.587Z,14.85
2023-11-29T07:55:09.689Z,15.13
2023-11-29T07:57:36.170Z,14.20
2023-11-29T08:00:05.169Z,15.30
2023-11-29T08:02:38.808Z,15.20
2023-11-29T08:05:05.708Z,15.40
2023-11-29T08:07:34.112Z,12.90
2023-11-29T08:10:02.886Z,14.50
2023-11-29T08:12:30.181Z,12.95
2023-11-29T08:14:56.739Z,15.07
2023-11-29T08:17:23.369Z,15.18
2023-11-29T08:19:50.016Z,13.25
2023-11-29T08:22:16.542Z,14.65
2023-11-29T08:24:43.117Z,14.13
2023-11-29T08:27:10.472Z,13.43
2023-11-29T08:29:37.916Z,12.57
2023-11-29T08:32:04.794Z,14.57
2023-11-29T08:34:31.279Z,14.05
2023-11-29T08:36:57.764Z,13.45
2023-11-29T08:39:24.277Z,12.77
2023-11-29T08:41:50.881Z,13.82
2023-11-29T08:44:17.517Z,12.63
2023-11-29T08:46:44.630Z,12.52
2023-11-29T08:49:11.320Z,13.07
2023-11-29T08:51:37.919Z,12.23
2023-11-29T08:54:04.850Z,13.40
2023-11-29T08:56:31.327Z,14.13
2023-11-29T08:58:57.917Z,13.23
2023-11-29T09:01:24.512Z,12.43
2023-11-29T09:03:51.477Z,13.80
2023-11-29T09:06:18.371Z,13.68
2023-11-29T09:08:45.761Z,13.75
2023-11-29T09:11:12.941Z,14.18
2023-11-29T09:13:40.168Z,13.80
2023-11-29T09:16:08.378Z,15.35
2023-11-29T09:18:35.505Z,12.43
2023-11-29T09:21:03.868Z,14.82
2023-11-29T09:23:30.584Z,14.43
2023-11-29T09:25:57.154Z,14.18
2023-11-29T09:28:23.626Z,14.70
2023-11-29T09:30:50.163Z,13.80
2023-11-29T09:33:16.894Z,16.65
2023-11-29T09:35:44.229Z,15.02
2023-11-29T09:38:11.796Z,14.32
2023-11-29T09:40:38.384Z,14.02
2023-11-29T09:43:07.167Z,13.82
2023-11-29T09:45:33.908Z,17.88
2023-11-29T09:48:01.550Z,14.57
2023-11-29T09:50:28.972Z,17.98
2023-11-29T09:52:56.460Z,13.48
2023-11-29T09:55:23.014Z,14.88
2023-11-29T09:57:49.681Z,15.35
2023-11-29T10:00:17.999Z,16.02
2023-11-29T10:02:44.804Z,17.30
2023-11-29T10:05:18.798Z,14.95
2023-11-29T10:07:46.485Z,14.63
2023-11-29T10:10:14.069Z,15.23
2023-11-29T10:12:45.451Z,15.40
2023-11-29T10:15:12.916Z,15.68
2023-11-29T10:17:43.242Z,16.63
2023-11-29T10:20:12.884Z,14.40
2023-11-29T10:22:39.514Z,14.20
2023-11-29T10:25:19.196Z,17.25
2023-11-29T10:27:46.704Z,15.65
2023-11-29T10:30:14.598Z,15.60
2023-11-29T10:32:42.654Z,17.40
2023-11-29T10:35:14.500Z,16.35
2023-11-29T10:37:45.936Z,18.08
2023-11-29T10:40:15.544Z,15.60
2023-11-29T10:42:51.277Z,17.90
2023-11-29T10:45:21.961Z,15.43
2023-11-29T10:47:59.689Z,16.33
2023-11-29T10:50:29.074Z,15.73
2023-11-29T10:52:55.664Z,16.20
2023-11-29T10:55:23.819Z,16.88
2023-11-29T10:57:58.268Z,18.75
2023-11-29T11:00:30.092Z,16.00
2023-11-29T11:02:57.092Z,16.98
2023-11-29T11:05:25.244Z,16.23
2023-11-29T11:07:53.467Z,18.63
2023-11-29T11:10:27.027Z,15.77
2023-11-29T11:12:56.905Z,15.32
2023-11-29T11:15:29.329Z,14.77
2023-11-29T11:18:01.807Z,17.05
2023-11-29T11:20:51.429Z,17.00
2023-11-29T11:23:28.289Z,16.02
2023-11-29T11:25:57.658Z,14.95
2023-11-29T11:28:38.498Z,14.77
2023-11-29T11:31:10.171Z,15.13
2023-11-29T11:34:09.291Z,15.10
2023-11-29T11:36:37.270Z,16.23
2023-11-29T11:39:04.361Z,13.82
2023-11-29T11:41:34.593Z,14.10
2023-11-29T11:44:01.062Z,14.35
2023-11-29T11:46:28.649Z,15.00
2023-11-29T11:48:55.438Z,15.80
2023-11-29T11:51:22.331Z,14.07
2023-11-29T11:53:49.014Z,15.40
2023-11-29T11:56:23.132Z,14.60
2023-11-29T11:58:50.796Z,14.70
2023-11-29T12:01:17.271Z,15.98
2023-11-29T12:03:43.966Z,13.45
2023-11-29T12:06:10.991Z,14.30
2023-11-29T12:08:38.720Z,14.63
2023-11-29T12:11:08.603Z,14.65
2023-11-29T12:13:35.861Z,13.77
2023-11-29T12:16:13.221Z,17.58
2023-11-29T12:18:41.016Z,14.30
2023-11-29T12:21:08.322Z,13.85
2023-11-29T12:23:37.691Z,14.35
2023-11-29T12:26:04.856Z,15.32
2023-11-29T12:28:33.558Z,15.27
2023-11-29T12:31:00.649Z,17.02
2023-11-29T12:33:27.364Z,14.25
2023-11-29T12:35:54.096Z,15.20
2023-11-29T12:38:20.769Z,13.45
2023-11-29T12:40:49.228Z,14.80
2023-11-29T12:43:15.866Z,13.55
2023-11-29T12:45:42.476Z,15.18
2023-11-29T12:48:09.012Z,14.40
2023-11-29T12:50:36.355Z,14.45
2023-11-29T12:53:02.889Z,16.30
2023-11-29T12:55:29.430Z,15.30
2023-11-29T12:57:56.510Z,14.98
2023-11-29T13:00:23.131Z,14.55
2023-11-29T13:02:49.853Z,14.25
2023-11-29T13:05:16.473Z,14.93
2023-11-29T13:07:42.928Z,15.43
2023-11-29T13:10:09.744Z,13.75
2023-11-29T13:12:36.917Z,15.07
2023-11-29T13:15:04.805Z,16.02
2023-11-29T13:17:31.873Z,15.63
2023-11-29T13:19:58.389Z,14.73
2023-11-29T13:22:24.928Z,15.05
2023-11-29T13:24:52.112Z,16.45
2023-11-29T13:27:18.715Z,15.90
2023-11-29T13:29:45.369Z,16.10
2023-11-29T13:32:14.387Z,14.45
2023-11-29T13:34:41.728Z,17.35
2023-11-29T13:37:08.975Z,14.07
2023-11-29T13:39:35.642Z,14.80
2023-11-29T13:42:02.229Z,14.75
2023-11-29T13:44:29.699Z,15.30
2023-11-29T13:46:56.976Z,14.88
2023-11-29T13:49:23.922Z,15.20
2023-11-29T13:52:00.998Z,16.02
2023-11-29T13:54:35.773Z,15.13
2023-11-29T13:57:03.015Z,16.58
2023-11-29T13:59:29.679Z,17.85
2023-11-29T14:01:56.419Z,17.02
2023-11-29T14:04:23.314Z,15.85
2023-11-29T14:06:50.025Z,16.63
2023-11-29T14:09:16.478Z,18.23
2023-11-29T14:11:44.427Z,17.17
2023-11-29T14:14:10.956Z,18.80
2023-11-29T14:16:39.748Z,17.38
2023-11-29T14:19:06.440Z,17.15
2023-11-29T14:21:33.111Z,17.02
2023-11-29T14:23:59.695Z,14.02
2023-11-29T14:26:26.256Z,13.55
2023-11-29T14:28:52.740Z,14.52
2023-11-29T14:31:20.032Z,11.63
2023-11-29T14:33:46.700Z,15.07
2023-11-29T14:36:13.622Z,15.93
2023-11-29T14:38:40.277Z,13.00
2023-11-29T14:41:12.011Z,12.57
2023-11-29T14:43:39.315Z,14.48
2023-11-29T14:46:06.129Z,14.68
2023-11-29T14:48:33.716Z,14.75
2023-11-29T14:51:01.707Z,14.63
2023-11-29T14:53:28.210Z,14.93
2023-11-29T14:55:55.048Z,16.45
2023-11-29T14:58:24.819Z,17.75
2023-11-29T15:00:51.346Z,18.42
2023-11-29T15:03:17.862Z,19.42
2023-11-29T15:05:44.485Z,31.67
2023-11-29T15:08:11.632Z,17.63
2023-11-29T15:10:38.228Z,17.30
2023-11-29T15:13:04.724Z,18.67
2023-11-29T15:15:31.210Z,15.95
2023-11-29T15:17:58.979Z,20.17
2023-11-29T15:20:26.554Z,19.25
2023-11-29T15:22:53.041Z,17.45
2023-11-29T15:25:21.324Z,15.75
2023-11-29T15:27:48.496Z,19.25
2023-11-29T15:30:15.807Z,18.05
2023-11-29T15:32:42.523Z,17.48
2023-11-29T15:35:09.278Z,15.75
2023-11-29T15:37:35.906Z,15.60
2023-11-29T15:40:02.406Z,17.38
2023-11-29T15:42:29.612Z,14.77
2023-11-29T15:44:56.332Z,15.57
2023-11-29T15:47:23.294Z,15.98
2023-11-29T15:49:49.905Z,13.77
2023-11-29T15:52:16.913Z,14.55
2023-11-29T15:54:43.435Z,15.63
2023-11-29T15:57:10.185Z,15.43
2023-11-29T15:59:37.024Z,14.75
2023-11-29T16:02:03.741Z,14.40
2023-11-29T16:04:30.543Z,12.98
2023-11-29T16:06:57.033Z,13.88
2023-11-29T16:09:23.572Z,11.80
2023-11-29T16:11:52.484Z,13.98
2023-11-29T16:14:19.212Z,14.57
2023-11-29T16:16:45.766Z,13.75
2023-11-29T16:19:12.355Z,13.55
2023-11-29T16:21:39.710Z,13.68
2023-11-29T16:24:06.455Z,13.52
2023-11-29T16:26:32.964Z,16.13
2023-11-29T16:28:59.755Z,12.52
2023-11-29T16:31:27.803Z,13.55
2023-11-29T16:33:55.086Z,14.07
2023-11-29T16:36:21.842Z,12.38
2023-11-29T16:38:48.371Z,14.95
2023-11-29T16:41:17.009Z,13.02
2023-11-29T16:43:46.328Z,12.65
2023-11-29T16:46:12.955Z,14.80
2023-11-29T16:48:39.755Z,14.77
2023-11-29T16:51:07.113Z,14.77
2023-11-29T16:53:33.912Z,14.30
2023-11-29T16:56:03.354Z,13.98
2023-11-29T16:58:29.784Z,15.95
2023-11-29T17:00:56.290Z,12.70
2023-11-29T17:03:22.953Z,14.95
2023-11-29T17:05:49.686Z,13.27
2023-11-29T17:08:16.280Z,15.10
2023-11-29T17:10:42.785Z,16.00
2023-11-29T17:13:09.271Z,14.98
2023-11-29T17:15:36.863Z,15.40
2023-11-29T17:18:03.648Z,14.45
2023-11-29T17:20:30.795Z,13.90
2023-11-29T17:22:57.256Z,15.88
2023-11-29T17:25:23.933Z,14.23
2023-11-29T17:27:50.473Z,16.70
2023-11-29T17:30:17.061Z,17.23
2023-11-29T17:32:44.387Z,15.55
2023-11-29T17:35:12.253Z,15.20
2023-11-29T17:37:40.670Z,14.93
2023-11-29T17:40:08.546Z,14.40
2023-11-29T17:42:35.122Z,14.95
2023-11-29T17:45:01.815Z,15.45
2023-11-29T17:47:28.369Z,17.60
2023-11-29T17:49:54.807Z,17.27
2023-11-29T17:52:21.361Z,16.17
2023-11-29T17:54:48.269Z,17.63
2023-11-29T17:57:14.770Z,15.15
2023-11-29T17:59:41.226Z,15.63
2023-11-29T18:02:07.908Z,15.70
2023-11-29T18:04:35.425Z,16.45
2023-11-29T18:07:01.957Z,16.52
2023-11-29T18:09:29.174Z,16.17
2023-11-29T18:11:55.715Z,15.93
2023-11-29T18:14:22.282Z,15.02
2023-11-29T18:16:49.038Z,17.27
2023-11-29T18:19:16.677Z,17.95
2023-11-29T18:21:43.240Z,17.38
2023-11-29T18:24:09.913Z,19.52
2023-11-29T18:26:36.403Z,19.40
2023-11-29T18:29:02.894Z,18.17
2023-11-29T18:31:29.469Z,21.58
2023-11-29T18:33:55.954Z,17.83
2023-11-29T18:36:22.440Z,18.40
2023-11-29T18:38:50.523Z,18.98
2023-11-29T18:41:17.199Z,18.40
2023-11-29T18:43:43.696Z,19.02
2023-11-29T18:46:10.703Z,18.55
2023-11-29T18:48:37.442Z,19.98
2023-11-29T18:51:04.264Z,18.70
2023-11-29T18:53:31.610Z,19.40
2023-11-29T18:55:59.531Z,19.35
2023-11-29T18:58:26.066Z,18.75
2023-11-29T19:00:52.510Z,18.88
2023-11-29T19:03:19.237Z,17.45
2023-11-29T19:05:46.753Z,17.05
2023-11-29T19:08:13.593Z,18.48
2023-11-29T19:10:42.079Z,18.23
2023-11-29T19:13:08.741Z,18.70
2023-11-29T19:15:35.336Z,20.20
2023-11-29T19:18:01.940Z,18.85
2023-11-29T19:20:28.498Z,18.50
2023-11-29T19:22:55.054Z,16.45
2023-11-29T19:25:21.597Z,19.73
2023-11-29T19:27:48.154Z,19.45
2023-11-29T19:30:14.916Z,18.33
2023-11-29T19:32:41.533Z,19.25
2023-11-29T19:35:18.306Z,18.42
2023-11-29T19:37:51.940Z,20.02
2023-11-29T19:40:18.454Z,19.15
2023-11-29T19:42:44.949Z,19.85
2023-11-29T19:45:11.729Z,19.10
2023-11-29T19:47:38.630Z,18.00
2023-11-29T19:50:06.254Z,17.77
2023-11-29T19:52:40.962Z,19.02
2023-11-29T19:55:14.324Z,18.38
2023-11-29T19:57:41.011Z,17.70
2023-11-29T20:00:08.163Z,19.77
2023-11-29T20:02:34.739Z,19.15
2023-11-29T20:05:01.753Z,18.63
2023-11-29T20:07:28.328Z,20.50
2023-11-29T20:09:55.009Z,20.30
2023-11-29T20:12:21.601Z,19.33
2023-11-29T20:17:15.876Z,21.00
2023-11-29T20:19:42.478Z,26.63
2023-11-29T20:22:08.978Z,22.77
2023-11-29T20:24:35.556Z,23.38
2023-11-29T20:27:02.166Z,20.73
2023-11-29T20:29:28.638Z,22.90
2023-11-29T20:31:55.107Z,20.88
2023-11-29T20:34:30.661Z,21.50
2023-11-29T20:37:05.970Z,23.65
2023-11-29T20:39:33.595Z,36.17
2023-11-29T20:42:00.574Z,49.58
2023-11-29T20:44:28.365Z,45.53
2023-11-29T20:46:55.123Z,48.42
2023-11-29T20:49:22.241Z,42.67
2023-11-29T20:51:49.110Z,38.10
2023-11-29T20:54:17.065Z,38.53
2023-11-29T20:56:44.168Z,34.22
2023-11-29T20:59:13.253Z,31.67
2023-11-29T21:01:40.271Z,28.13
2023-11-29T21:04:10.008Z,28.60
2023-11-29T21:06:38.148Z,25.13
2023-11-29T21:09:06.144Z,27.70
2023-11-29T21:11:34.995Z,24.95
2023-11-29T21:14:01.453Z,28.23
2023-11-29T21:16:27.999Z,23.85
2023-11-29T21:18:55.203Z,23.73
2023-11-29T21:21:21.916Z,23.63
2023-11-29T21:23:48.502Z,23.52
2023-11-29T21:26:14.990Z,23.65
2023-11-29T21:28:41.509Z,22.55
2023-11-29T21:31:08.058Z,23.73
2023-11-29T21:33:35.270Z,21.63
2023-11-29T21:36:01.964Z,25.02
2023-11-29T21:38:28.577Z,20.58
2023-11-29T21:40:55.366Z,21.35
2023-11-29T21:43:22.072Z,22.00
2023-11-29T21:45:48.592Z,21.10
2023-11-29T21:48:15.229Z,23.55
2023-11-29T21:50:41.880Z,22.33
2023-11-29T21:53:09.081Z,21.45
2023-11-29T21:55:35.884Z,20.00
2023-11-29T21:58:02.398Z,23.10
2023-11-29T22:00:29.411Z,21.85
2023-11-29T22:02:55.971Z,21.42
2023-11-29T22:05:24.370Z,22.52
2023-11-29T22:07:51.317Z,20.55
2023-11-29T22:10:18.265Z,22.27
2023-11-29T22:12:44.769Z,22.05
2023-11-29T22:15:11.356Z,20.60
2023-11-29T22:17:38.061Z,20.30
2023-11-29T22:20:05.096Z,23.40
2023-11-29T22:22:31.526Z,19.20
2023-11-29T22:24:58.099Z,19.73
2023-11-29T22:27:24.578Z,20.77
2023-11-29T22:29:51.208Z,23.50
2023-11-29T22:32:17.700Z,23.15
2023-11-29T22:34:44.188Z,21.83
2023-11-29T22:37:11.636Z,22.55
2023-11-29T22:39:39.672Z,20.63
2023-11-29T22:42:06.236Z,23.90
2023-11-29T22:44:32.764Z,20.65
2023-11-29T22:46:59.278Z,21.55
2023-11-29T22:49:26.273Z,22.70
2023-11-29T22:51:52.853Z,19.55
2023-11-29T22:54:19.489Z,25.27
2023-11-29T22:56:46.060Z,20.92
2023-11-29T22:59:12.513Z,20.77
2023-11-29T23:01:39.176Z,22.60
2023-11-29T23:04:05.813Z,21.13
2023-11-29T23:06:32.972Z,25.83
2023-11-29T23:08:59.939Z,22.25
2023-11-29T23:11:26.513Z,20.77
2023-11-29T23:13:53.221Z,22.55
2023-11-29T23:16:20.139Z,20.55
2023-11-29T23:18:48.051Z,20.20
2023-11-29T23:21:14.788Z,20.08
2023-11-29T23:23:41.447Z,20.70
2023-11-29T23:26:07.922Z,20.40
2023-11-29T23:28:34.795Z,20.10
2023-11-29T23:31:01.804Z,24.30
2023-11-29T23:33:28.973Z,21.42
2023-11-29T23:35:57.147Z,23.35
2023-11-29T23:38:24.008Z,23.10
2023-11-29T23:40:50.542Z,22.30
2023-11-29T23:43:17.116Z,23.85
2023-11-29T23:45:43.601Z,20.55
2023-11-29T23:48:10.814Z,21.33
2023-11-29T23:50:37.425Z,22.88
2023-11-29T23:53:03.902Z,21.00
2023-11-29T23:55:30.696Z,20.52
2023-11-29T23:57:57.526Z,22.73
